sensor_id;sensor_type;location;lat;lon;timestamp;pressure;altitude;pressure_sealevel;temperature
74043;BMP280;62384;53.600;10.040;2023-05-10T00:01:59;77009.75;;;15.36
74043;BMP280;62384;53.600;10.040;2023-05-10T00:04:24;76982.91;;;15.15
74043;BMP280;62384;53.600;10.040;2023-05-10T00:06:52;76977.53;;;15.22
74043;BMP280;62384;53.600;10.040;2023-05-10T00:09:18;76978.66;;;15.02
74043;BMP280;62384;53.600;10.040;2023-05-10T00:11:43;77011.28;;;15.21
74043;BMP280;62384;53.600;10.040;2023-05-10T00:14:08;76982.28;;;15.07
74043;BMP280;62384;53.600;10.040;2023-05-10T00:16:34;76993.63;;;15.22
74043;BMP280;62384;53.600;10.040;2023-05-10T00:18:59;76976.94;;;15.14
74043;BMP280;62384;53.600;10.040;2023-05-10T00:21:24;77010.47;;;15.18
74043;BMP280;62384;53.600;10.040;2023-05-10T00:23:50;76982.50;;;15.10
74043;BMP280;62384;53.600;10.040;2023-05-10T00:26:15;76983.66;;;15.11
74043;BMP280;62384;53.600;10.040;2023-05-10T00:28:41;76952.38;;;14.81
74043;BMP280;62384;53.600;10.040;2023-05-10T00:31:07;76974.22;;;15.00
74043;BMP280;62384;53.600;10.040;2023-05-10T00:33:33;76992.06;;;15.02
74043;BMP280;62384;53.600;10.040;2023-05-10T00:35:59;76937.59;;;14.78
74043;BMP280;62384;53.600;10.040;2023-05-10T00:38:27;76986.47;;;14.85
74043;BMP280;62384;53.600;10.040;2023-05-10T00:40:52;76970.03;;;14.94
74043;BMP280;62384;53.600;10.040;2023-05-10T00:43:18;76987.63;;;15.00
74043;BMP280;62384;53.600;10.040;2023-05-10T00:45:44;76954.09;;;14.83
74043;BMP280;62384;53.600;10.040;2023-05-10T00:48:09;76925.91;;;14.65
74043;BMP280;62384;53.600;10.040;2023-05-10T00:50:35;76948.72;;;14.83
74043;BMP280;62384;53.600;10.040;2023-05-10T00:53:01;76971.91;;;14.91
74043;BMP280;62384;53.600;10.040;2023-05-10T00:55:27;76952.38;;;14.81
74043;BMP280;62384;53.600;10.040;2023-05-10T00:57:53;76956.78;;;14.90
74043;BMP280;62384;53.600;10.040;2023-05-10T01:00:18;76942.03;;;14.86
74043;BMP280;62384;53.600;10.040;2023-05-10T01:02:45;76917.06;;;14.48
74043;BMP280;62384;53.600;10.040;2023-05-10T01:05:11;76942.41;;;14.84
74043;BMP280;62384;53.600;10.040;2023-05-10T01:07:37;76919.75;;;14.55
74043;BMP280;62384;53.600;10.040;2023-05-10T01:10:02;76908.47;;;14.62
74043;BMP280;62384;53.600;10.040;2023-05-10T01:12:28;76943.41;;;14.36
74043;BMP280;62384;53.600;10.040;2023-05-10T01:14:54;76939.31;;;14.65
74043;BMP280;62384;53.600;10.040;2023-05-10T01:17:21;76932.00;;;14.61
74043;BMP280;62384;53.600;10.040;2023-05-10T01:19:47;76936.41;;;14.56
74043;BMP280;62384;53.600;10.040;2023-05-10T01:22:34;76939.63;;;14.56
74043;BMP280;62384;53.600;10.040;2023-05-10T01:25:19;76915.16;;;14.58
74043;BMP280;62384;53.600;10.040;2023-05-10T01:30:47;76939.25;;;14.51
74043;BMP280;62384;53.600;10.040;2023-05-10T01:33:27;76881.56;;;14.26
74043;BMP280;62384;53.600;10.040;2023-05-10T01:45:10;76896.88;;;14.23
74043;BMP280;62384;53.600;10.040;2023-05-10T01:48:12;76857.81;;;14.17
74043;BMP280;62384;53.600;10.040;2023-05-10T01:50:46;76847.44;;;14.01
74043;BMP280;62384;53.600;10.040;2023-05-10T01:53:13;76907.00;;;14.23
74043;BMP280;62384;53.600;10.040;2023-05-10T01:55:48;76885.91;;;14.14
74043;BMP280;62384;53.600;10.040;2023-05-10T01:58:19;76825.38;;;13.80
74043;BMP280;62384;53.600;10.040;2023-05-10T02:00:46;76874.84;;;14.16
74043;BMP280;62384;53.600;10.040;2023-05-10T02:03:13;76854.38;;;14.14
74043;BMP280;62384;53.600;10.040;2023-05-10T02:05:41;76870.78;;;14.05
74043;BMP280;62384;53.600;10.040;2023-05-10T02:08:08;76874.81;;;14.09
74043;BMP280;62384;53.600;10.040;2023-05-10T02:10:35;76862.13;;;13.91
74043;BMP280;62384;53.600;10.040;2023-05-10T02:13:02;76845.59;;;13.71
74043;BMP280;62384;53.600;10.040;2023-05-10T02:15:28;76858.53;;;13.99
74043;BMP280;62384;53.600;10.040;2023-05-10T02:17:55;76833.44;;;13.94
74043;BMP280;62384;53.600;10.040;2023-05-10T02:20:22;76846.06;;;13.91
74043;BMP280;62384;53.600;10.040;2023-05-10T02:22:50;76850.53;;;13.66
74043;BMP280;62384;53.600;10.040;2023-05-10T02:25:18;76839.31;;;13.80
74043;BMP280;62384;53.600;10.040;2023-05-10T02:27:44;76833.97;;;13.73
74043;BMP280;62384;53.600;10.040;2023-05-10T02:30:10;76829.19;;;13.81
74043;BMP280;62384;53.600;10.040;2023-05-10T02:32:36;76791.19;;;13.40
74043;BMP280;62384;53.600;10.040;2023-05-10T02:35:03;76828.59;;;13.73
74043;BMP280;62384;53.600;10.040;2023-05-10T02:37:29;76815.97;;;13.69
74043;BMP280;62384;53.600;10.040;2023-05-10T02:39:55;76802.16;;;13.64
74043;BMP280;62384;53.600;10.040;2023-05-10T02:42:29;76756.31;;;13.19
74043;BMP280;62384;53.600;10.040;2023-05-10T02:44:59;76837.97;;;13.69
74043;BMP280;62384;53.600;10.040;2023-05-10T02:47:26;76773.72;;;13.23
74043;BMP280;62384;53.600;10.040;2023-05-10T02:49:51;76797.72;;;13.48
74043;BMP280;62384;53.600;10.040;2023-05-10T02:52:21;76798.72;;;13.61
74043;BMP280;62384;53.600;10.040;2023-05-10T02:54:50;76808.06;;;13.50
74043;BMP280;62384;53.600;10.040;2023-05-10T02:57:22;76816.06;;;13.50
74043;BMP280;62384;53.600;10.040;2023-05-10T02:59:50;76785.41;;;13.28
74043;BMP280;62384;53.600;10.040;2023-05-10T03:02:16;76764.78;;;13.31
74043;BMP280;62384;53.600;10.040;2023-05-10T03:04:41;76799.66;;;13.52
74043;BMP280;62384;53.600;10.040;2023-05-10T03:07:07;76813.19;;;13.48
74043;BMP280;62384;53.600;10.040;2023-05-10T03:09:33;76750.75;;;13.10
74043;BMP280;62384;53.600;10.040;2023-05-10T03:12:22;76805.38;;;13.57
74043;BMP280;62384;53.600;10.040;2023-05-10T03:15:13;76778.63;;;13.50
74043;BMP280;62384;53.600;10.040;2023-05-10T03:17:47;76771.69;;;13.37
74043;BMP280;62384;53.600;10.040;2023-05-10T03:20:25;76750.75;;;13.10
74043;BMP280;62384;53.600;10.040;2023-05-10T03:23:21;76759.94;;;13.18
74043;BMP280;62384;53.600;10.040;2023-05-10T03:25:48;76788.16;;;13.42
74043;BMP280;62384;53.600;10.040;2023-05-10T03:28:16;76787.59;;;13.49
74043;BMP280;62384;53.600;10.040;2023-05-10T03:30:43;76780.13;;;13.42
74043;BMP280;62384;53.600;10.040;2023-05-10T03:33:08;76777.00;;;13.30
74043;BMP280;62384;53.600;10.040;2023-05-10T03:35:34;76796.16;;;13.42
74043;BMP280;62384;53.600;10.040;2023-05-10T03:38:00;76781.06;;;13.41
74043;BMP280;62384;53.600;10.040;2023-05-10T03:40:26;76740.22;;;13.05
74043;BMP280;62384;53.600;10.040;2023-05-10T03:42:54;76774.78;;;13.42
74043;BMP280;62384;53.600;10.040;2023-05-10T03:45:20;76737.91;;;13.03
74043;BMP280;62384;53.600;10.040;2023-05-10T03:47:45;76767.84;;;13.29
74043;BMP280;62384;53.600;10.040;2023-05-10T03:50:11;76780.88;;;13.45
74043;BMP280;62384;53.600;10.040;2023-05-10T03:52:36;76779.13;;;13.30
74043;BMP280;62384;53.600;10.040;2023-05-10T03:55:04;76796.94;;;13.45
74043;BMP280;62384;53.600;10.040;2023-05-10T03:57:30;76788.06;;;13.28
74043;BMP280;62384;53.600;10.040;2023-05-10T03:59:55;76736.38;;;13.04
74043;BMP280;62384;53.600;10.040;2023-05-10T04:02:20;76789.09;;;13.41
74043;BMP280;62384;53.600;10.040;2023-05-10T04:04:45;76763.63;;;13.30
74043;BMP280;62384;53.600;10.040;2023-05-10T04:07:11;76738.31;;;13.08
74043;BMP280;62384;53.600;10.040;2023-05-10T04:09:36;76780.09;;;13.35
74043;BMP280;62384;53.600;10.040;2023-05-10T04:12:02;76750.56;;;13.14
74043;BMP280;62384;53.600;10.040;2023-05-10T04:14:27;76751.78;;;13.29
74043;BMP280;62384;53.600;10.040;2023-05-10T04:16:52;76756.16;;;13.24
74043;BMP280;62384;53.600;10.040;2023-05-10T04:19:18;76808.03;;;13.43
74043;BMP280;62384;53.600;10.040;2023-05-10T04:21:43;76809.16;;;13.44
74043;BMP280;62384;53.600;10.040;2023-05-10T04:24:08;76823.56;;;13.57
74043;BMP280;62384;53.600;10.040;2023-05-10T04:26:33;76753.22;;;13.14
74043;BMP280;62384;53.600;10.040;2023-05-10T04:28:59;76741.00;;;13.08
74043;BMP280;62384;53.600;10.040;2023-05-10T04:31:24;76785.81;;;13.40
74043;BMP280;62384;53.600;10.040;2023-05-10T04:33:49;76762.72;;;13.39
74043;BMP280;62384;53.600;10.040;2023-05-10T04:36:15;76800.97;;;13.49
74043;BMP280;62384;53.600;10.040;2023-05-10T04:38:40;76812.41;;;13.45
74043;BMP280;62384;53.600;10.040;2023-05-10T04:41:09;76785.09;;;13.44
74043;BMP280;62384;53.600;10.040;2023-05-10T04:43:35;76787.59;;;13.49
74043;BMP280;62384;53.600;10.040;2023-05-10T04:46:02;76744.72;;;13.28
74043;BMP280;62384;53.600;10.040;2023-05-10T04:48:27;76773.56;;;13.34
74043;BMP280;62384;53.600;10.040;2023-05-10T04:50:53;76805.19;;;13.55
74043;BMP280;62384;53.600;10.040;2023-05-10T04:53:20;76812.09;;;13.61
74043;BMP280;62384;53.600;10.040;2023-05-10T04:55:45;76779.38;;;13.14
74043;BMP280;62384;53.600;10.040;2023-05-10T04:58:11;76819.97;;;13.65
74043;BMP280;62384;53.600;10.040;2023-05-10T05:00:37;76812.28;;;13.56
74043;BMP280;62384;53.600;10.040;2023-05-10T05:03:02;76812.66;;;13.54
74043;BMP280;62384;53.600;10.040;2023-05-10T05:05:27;76808.97;;;13.42
74043;BMP280;62384;53.600;10.040;2023-05-10T05:07:52;76790.47;;;13.51
74043;BMP280;62384;53.600;10.040;2023-05-10T05:10:18;76847.53;;;13.76
74043;BMP280;62384;53.600;10.040;2023-05-10T05:12:43;76839.91;;;13.81
74043;BMP280;62384;53.600;10.040;2023-05-10T05:15:08;76835.88;;;13.77
74043;BMP280;62384;53.600;10.040;2023-05-10T05:17:35;76854.28;;;13.86
74043;BMP280;62384;53.600;10.040;2023-05-10T05:20:00;76824.69;;;13.58
74043;BMP280;62384;53.600;10.040;2023-05-10T05:22:25;76823.56;;;13.57
74043;BMP280;62384;53.600;10.040;2023-05-10T05:24:55;76879.53;;;13.94
74043;BMP280;62384;53.600;10.040;2023-05-10T05:27:22;76853.19;;;13.99
74043;BMP280;62384;53.600;10.040;2023-05-10T05:29:50;76863.13;;;14.03
74043;BMP280;62384;53.600;10.040;2023-05-10T05:32:15;76853.66;;;13.79
74043;BMP280;62384;53.600;10.040;2023-05-10T05:34:41;76910.59;;;14.14
74043;BMP280;62384;53.600;10.040;2023-05-10T05:37:06;76883.41;;;14.02
74043;BMP280;62384;53.600;10.040;2023-05-10T05:39:31;76898.72;;;14.13
74043;BMP280;62384;53.600;10.040;2023-05-10T05:41:57;76838.41;;;13.89
74043;BMP280;62384;53.600;10.040;2023-05-10T05:44:23;76951.13;;;14.59
74043;BMP280;62384;53.600;10.040;2023-05-10T05:46:48;76896.75;;;14.42
74043;BMP280;62384;53.600;10.040;2023-05-10T05:49:14;76936.50;;;14.37
74043;BMP280;62384;53.600;10.040;2023-05-10T05:51:39;76998.31;;;14.86
74043;BMP280;62384;53.600;10.040;2023-05-10T05:54:07;76970.00;;;14.87
74043;BMP280;62384;53.600;10.040;2023-05-10T05:56:32;76975.72;;;14.78
74043;BMP280;62384;53.600;10.040;2023-05-10T05:58:57;76949.06;;;14.67
74043;BMP280;62384;53.600;10.040;2023-05-10T06:01:23;76959.19;;;14.59
74043;BMP280;62384;53.600;10.040;2023-05-10T06:03:48;76968.81;;;14.79
74043;BMP280;62384;53.600;10.040;2023-05-10T06:06:14;77011.63;;;15.05
74043;BMP280;62384;53.600;10.040;2023-05-10T06:08:39;76969.78;;;14.85
74043;BMP280;62384;53.600;10.040;2023-05-10T06:11:04;77035.09;;;15.44
74043;BMP280;62384;53.600;10.040;2023-05-10T06:13:30;77033.13;;;15.33
74043;BMP280;62384;53.600;10.040;2023-05-10T06:16:00;77081.28;;;15.59
74043;BMP280;62384;53.600;10.040;2023-05-10T06:18:26;77054.03;;;15.40
74043;BMP280;62384;53.600;10.040;2023-05-10T06:20:51;77075.94;;;15.59
74043;BMP280;62384;53.600;10.040;2023-05-10T06:23:16;77060.19;;;15.43
74043;BMP280;62384;53.600;10.040;2023-05-10T06:25:42;77084.38;;;15.64
74043;BMP280;62384;53.600;10.040;2023-05-10T06:28:07;77118.56;;;15.89
74043;BMP280;62384;53.600;10.040;2023-05-10T06:30:33;77064.03;;;15.58
74043;BMP280;62384;53.600;10.040;2023-05-10T06:32:58;77080.38;;;15.81
74043;BMP280;62384;53.600;10.040;2023-05-10T06:35:23;77122.41;;;15.90
74043;BMP280;62384;53.600;10.040;2023-05-10T06:37:49;77133.34;;;15.99
74043;BMP280;62384;53.600;10.040;2023-05-10T06:40:15;77109.34;;;15.88
74043;BMP280;62384;53.600;10.040;2023-05-10T06:42:42;77142.59;;;16.14
74043;BMP280;62384;53.600;10.040;2023-05-10T06:45:08;77161.94;;;16.08
74043;BMP280;62384;53.600;10.040;2023-05-10T06:47:34;77142.75;;;16.03
74043;BMP280;62384;53.600;10.040;2023-05-10T06:49:59;77121.66;;;16.01
74043;BMP280;62384;53.600;10.040;2023-05-10T06:52:24;77095.94;;;15.81
74043;BMP280;62384;53.600;10.040;2023-05-10T06:54:50;77067.09;;;15.49
74043;BMP280;62384;53.600;10.040;2023-05-10T06:57:17;77079.94;;;15.55
74043;BMP280;62384;53.600;10.040;2023-05-10T06:59:42;77091.28;;;15.56
74043;BMP280;62384;53.600;10.040;2023-05-10T07:02:08;77083.63;;;15.61
74043;BMP280;62384;53.600;10.040;2023-05-10T07:04:33;77117.03;;;15.97
74043;BMP280;62384;53.600;10.040;2023-05-10T07:06:59;77141.81;;;16.19
74043;BMP280;62384;53.600;10.040;2023-05-10T07:09:24;77134.66;;;15.89
74043;BMP280;62384;53.600;10.040;2023-05-10T07:11:52;77172.91;;;16.32
74043;BMP280;62384;53.600;10.040;2023-05-10T07:14:17;77166.59;;;16.26
74043;BMP280;62384;53.600;10.040;2023-05-10T07:16:42;77129.50;;;16.05
74043;BMP280;62384;53.600;10.040;2023-05-10T07:19:08;77208.09;;;16.55
74043;BMP280;62384;53.600;10.040;2023-05-10T07:21:34;77227.31;;;16.60
74043;BMP280;62384;53.600;10.040;2023-05-10T07:24:00;77186.56;;;16.41
74043;BMP280;62384;53.600;10.040;2023-05-10T07:26:26;77176.78;;;16.33
74043;BMP280;62384;53.600;10.040;2023-05-10T07:28:51;77202.50;;;16.39
74043;BMP280;62384;53.600;10.040;2023-05-10T07:31:17;77223.84;;;16.92
74043;BMP280;62384;53.600;10.040;2023-05-10T07:33:42;77253.47;;;17.07
74043;BMP280;62384;53.600;10.040;2023-05-10T07:36:07;77226.53;;;16.92
74043;BMP280;62384;53.600;10.040;2023-05-10T07:38:33;77201.34;;;16.52
74043;BMP280;62384;53.600;10.040;2023-05-10T07:40:58;77235.94;;;16.75
74043;BMP280;62384;53.600;10.040;2023-05-10T07:43:23;77216.34;;;16.72
74043;BMP280;62384;53.600;10.040;2023-05-10T07:45:48;77213.84;;;16.88
74043;BMP280;62384;53.600;10.040;2023-05-10T07:48:14;77278.44;;;17.17
74043;BMP280;62384;53.600;10.040;2023-05-10T07:50:39;77279.59;;;16.96
74043;BMP280;62384;53.600;10.040;2023-05-10T07:53:05;77283.22;;;17.23
74043;BMP280;62384;53.600;10.040;2023-05-10T07:55:30;77268.44;;;17.13
74043;BMP280;62384;53.600;10.040;2023-05-10T07:57:58;77281.72;;;17.31
74043;BMP280;62384;53.600;10.040;2023-05-10T08:00:26;77328.03;;;17.32
74043;BMP280;62384;53.600;10.040;2023-05-10T08:02:51;77313.63;;;17.40
74043;BMP280;62384;53.600;10.040;2023-05-10T08:05:17;77306.88;;;17.44
74043;BMP280;62384;53.600;10.040;2023-05-10T08:07:43;77331.88;;;17.61
74043;BMP280;62384;53.600;10.040;2023-05-10T08:10:08;77345.34;;;17.68
74043;BMP280;62384;53.600;10.040;2023-05-10T08:12:34;77340.34;;;17.52
74043;BMP280;62384;53.600;10.040;2023-05-10T08:14:59;77308.03;;;17.38
74043;BMP280;62384;53.600;10.040;2023-05-10T08:17:25;77330.94;;;17.55
74043;BMP280;62384;53.600;10.040;2023-05-10T08:19:50;77290.16;;;17.22
74043;BMP280;62384;53.600;10.040;2023-05-10T08:22:16;77310.34;;;17.47
74043;BMP280;62384;53.600;10.040;2023-05-10T08:24:42;77299.00;;;17.39
74043;BMP280;62384;53.600;10.040;2023-05-10T08:27:08;77290.53;;;17.20
74043;BMP280;62384;53.600;10.040;2023-05-10T08:29:34;77265.75;;;17.13
74043;BMP280;62384;53.600;10.040;2023-05-10T08:31:59;77298.03;;;17.27
74043;BMP280;62384;53.600;10.040;2023-05-10T08:34:26;77289.41;;;17.19
74043;BMP280;62384;53.600;10.040;2023-05-10T08:36:51;77317.06;;;17.43
74043;BMP280;62384;53.600;10.040;2023-05-10T08:39:17;77284.78;;;17.22
74043;BMP280;62384;53.600;10.040;2023-05-10T08:41:43;77296.31;;;17.39
74043;BMP280;62384;53.600;10.040;2023-05-10T08:44:10;77302.06;;;17.37
74043;BMP280;62384;53.600;10.040;2023-05-10T08:46:37;77285.56;;;17.25
74043;BMP280;62384;53.600;10.040;2023-05-10T08:49:06;77304.19;;;17.37
74043;BMP280;62384;53.600;10.040;2023-05-10T08:51:40;77328.03;;;17.60
74043;BMP280;62384;53.600;10.040;2023-05-10T08:54:08;77342.09;;;17.60
74043;BMP280;62384;53.600;10.040;2023-05-10T08:56:35;77306.13;;;17.55
74043;BMP280;62384;53.600;10.040;2023-05-10T08:59:01;77388.41;;;17.96
74043;BMP280;62384;53.600;10.040;2023-05-10T09:01:27;77390.56;;;17.88
74043;BMP280;62384;53.600;10.040;2023-05-10T09:03:52;77394.97;;;18.11
74043;BMP280;62384;53.600;10.040;2023-05-10T09:06:26;77383.44;;;18.08
74043;BMP280;62384;53.600;10.040;2023-05-10T09:08:51;77429.63;;;18.06
74043;BMP280;62384;53.600;10.040;2023-05-10T09:11:17;77409.56;;;18.40
74043;BMP280;62384;53.600;10.040;2023-05-10T09:13:43;77421.91;;;18.18
74043;BMP280;62384;53.600;10.040;2023-05-10T09:16:08;77391.13;;;17.96
74043;BMP280;62384;53.600;10.040;2023-05-10T09:18:34;77443.66;;;18.28
74043;BMP280;62384;53.600;10.040;2023-05-10T09:20:59;77421.91;;;18.11
74043;BMP280;62384;53.600;10.040;2023-05-10T09:23:25;77333.22;;;17.64
74043;BMP280;62384;53.600;10.040;2023-05-10T09:26:05;77339.19;;;17.65
74043;BMP280;62384;53.600;10.040;2023-05-10T09:28:32;77402.28;;;18.01
74043;BMP280;62384;53.600;10.040;2023-05-10T09:30:58;77418.66;;;18.18
74043;BMP280;62384;53.600;10.040;2023-05-10T09:33:24;77399.72;;;18.39
74043;BMP280;62384;53.600;10.040;2023-05-10T09:35:51;77444.97;;;18.45
74043;BMP280;62384;53.600;10.040;2023-05-10T09:38:17;77337.47;;;17.70
74043;BMP280;62384;53.600;10.040;2023-05-10T09:40:51;77353.78;;;17.94
74043;BMP280;62384;53.600;10.040;2023-05-10T09:43:19;77371.28;;;18.05
74043;BMP280;62384;53.600;10.040;2023-05-10T09:45:47;77331.69;;;17.72
74043;BMP280;62384;53.600;10.040;2023-05-10T09:48:13;77360.91;;;17.81
74043;BMP280;62384;53.600;10.040;2023-05-10T09:50:39;77369.56;;;17.96
74043;BMP280;62384;53.600;10.040;2023-05-10T09:53:05;77376.69;;;17.76
74043;BMP280;62384;53.600;10.040;2023-05-10T09:55:44;77381.69;;;17.85
74043;BMP280;62384;53.600;10.040;2023-05-10T09:58:11;77351.50;;;17.64
74043;BMP280;62384;53.600;10.040;2023-05-10T10:00:46;77326.50;;;17.54
74043;BMP280;62384;53.600;10.040;2023-05-10T10:03:16;77288.03;;;17.37
74043;BMP280;62384;53.600;10.040;2023-05-10T10:05:43;77223.47;;;16.94
74043;BMP280;62384;53.600;10.040;2023-05-10T10:08:09;77206.16;;;16.72
74043;BMP280;62384;53.600;10.040;2023-05-10T10:10:34;77133.56;;;16.23
74043;BMP280;62384;53.600;10.040;2023-05-10T10:13:01;77038.00;;;15.96
74043;BMP280;62384;53.600;10.040;2023-05-10T10:15:26;76830.84;;;15.91
74043;BMP280;62384;53.600;10.040;2023-05-10T10:17:53;76360.41;;;15.67
74043;BMP280;62384;53.600;10.040;2023-05-10T10:20:20;75936.38;;;15.76
74043;BMP280;62384;53.600;10.040;2023-05-10T10:22:46;75492.38;;;15.54
74043;BMP280;62384;53.600;10.040;2023-05-10T10:25:13;74982.38;;;15.58
74043;BMP280;62384;53.600;10.040;2023-05-10T10:30:37;73393.44;;;15.37
74043;BMP280;62384;53.600;10.040;2023-05-10T10:35:55;72941.44;;;15.20
74043;BMP280;62384;53.600;10.040;2023-05-10T10:38:23;72131.47;;;15.27
74043;BMP280;62384;53.600;10.040;2023-05-10T10:40:56;72683.97;;;14.88
74043;BMP280;62384;53.600;10.040;2023-05-10T10:43:27;72209.06;;;14.74
74043;BMP280;62384;53.600;10.040;2023-05-10T10:46:16;71860.19;;;14.48
74043;BMP280;62384;53.600;10.040;2023-05-10T10:49:08;70817.84;;;14.74
74043;BMP280;62384;53.600;10.040;2023-05-10T10:54:51;71250.66;;;14.30
74043;BMP280;62384;53.600;10.040;2023-05-10T10:57:18;70265.50;;;14.47
74043;BMP280;62384;53.600;10.040;2023-05-10T10:59:44;70749.81;;;14.78
74043;BMP280;62384;53.600;10.040;2023-05-10T11:02:33;70534.66;;;14.82
74043;BMP280;62384;53.600;10.040;2023-05-10T11:04:59;70104.41;;;14.88
74043;BMP280;62384;53.600;10.040;2023-05-10T11:07:26;70462.44;;;14.82
74043;BMP280;62384;53.600;10.040;2023-05-10T11:09:51;70718.81;;;14.77
74043;BMP280;62384;53.600;10.040;2023-05-10T11:12:16;70985.06;;;14.86
74043;BMP280;62384;53.600;10.040;2023-05-10T11:14:42;70930.06;;;14.79
74043;BMP280;62384;53.600;10.040;2023-05-10T11:17:27;70530.44;;;15.22
74043;BMP280;62384;53.600;10.040;2023-05-10T11:20:07;71149.69;;;15.33
74043;BMP280;62384;53.600;10.040;2023-05-10T11:22:48;70559.41;;;15.40
74043;BMP280;62384;53.600;10.040;2023-05-10T11:25:18;70821.84;;;15.14
74043;BMP280;62384;53.600;10.040;2023-05-10T11:27:43;70366.16;;;14.82
74043;BMP280;62384;53.600;10.040;2023-05-10T11:30:10;70781.03;;;15.18
74043;BMP280;62384;53.600;10.040;2023-05-10T11:32:39;70436.63;;;14.88
74043;BMP280;62384;53.600;10.040;2023-05-10T11:35:09;71267.44;;;15.00
74043;BMP280;62384;53.600;10.040;2023-05-10T11:37:35;70792.00;;;14.83
74043;BMP280;62384;53.600;10.040;2023-05-10T11:40:04;70796.16;;;15.12
74043;BMP280;62384;53.600;10.040;2023-05-10T11:42:29;70699.19;;;14.94
74043;BMP280;62384;53.600;10.040;2023-05-10T11:44:55;70837.50;;;15.08
74043;BMP280;62384;53.600;10.040;2023-05-10T11:47:21;71035.56;;;14.73
74043;BMP280;62384;53.600;10.040;2023-05-10T11:49:47;71247.78;;;15.27
74043;BMP280;62384;53.600;10.040;2023-05-10T11:52:13;70872.28;;;15.08
74043;BMP280;62384;53.600;10.040;2023-05-10T11:54:50;70365.28;;;14.94
74043;BMP280;62384;53.600;10.040;2023-05-10T11:57:18;70589.13;;;15.29
74043;BMP280;62384;53.600;10.040;2023-05-10T11:59:43;70484.25;;;15.08
74043;BMP280;62384;53.600;10.040;2023-05-10T12:02:11;70462.69;;;15.52
74043;BMP280;62384;53.600;10.040;2023-05-10T12:04:40;70737.66;;;15.44
74043;BMP280;62384;53.600;10.040;2023-05-10T12:07:08;70774.97;;;15.02
74043;BMP280;62384;53.600;10.040;2023-05-10T12:10:05;70097.81;;;15.25
74043;BMP280;62384;53.600;10.040;2023-05-10T12:13:04;69181.94;;;15.30
74043;BMP280;62384;53.600;10.040;2023-05-10T12:15:24;68717.19;;;15.25
74043;BMP280;62384;53.600;10.040;2023-05-10T12:17:50;69021.91;;;15.41
74043;BMP280;62384;53.600;10.040;2023-05-10T12:20:21;68355.09;;;15.24
74043;BMP280;62384;53.600;10.040;2023-05-10T12:22:57;68297.53;;;14.86
74043;BMP280;62384;53.600;10.040;2023-05-10T12:25:24;68971.19;;;15.17
74043;BMP280;62384;53.600;10.040;2023-05-10T12:27:57;68093.81;;;15.36
74043;BMP280;62384;53.600;10.040;2023-05-10T12:30:28;68748.69;;;15.46
74043;BMP280;62384;53.600;10.040;2023-05-10T12:32:54;69457.16;;;15.51
74043;BMP280;62384;53.600;10.040;2023-05-10T12:35:24;69909.72;;;15.61
74043;BMP280;62384;53.600;10.040;2023-05-10T12:37:53;69919.38;;;15.89
74043;BMP280;62384;53.600;10.040;2023-05-10T12:40:18;70363.63;;;15.70
74043;BMP280;62384;53.600;10.040;2023-05-10T12:42:44;70693.06;;;15.93
74043;BMP280;62384;53.600;10.040;2023-05-10T12:45:10;71296.59;;;16.27
74043;BMP280;62384;53.600;10.040;2023-05-10T12:47:35;71316.34;;;16.33
74043;BMP280;62384;53.600;10.040;2023-05-10T12:50:02;71562.53;;;16.35
74043;BMP280;62384;53.600;10.040;2023-05-10T12:52:28;71879.66;;;16.31
74043;BMP280;62384;53.600;10.040;2023-05-10T12:54:53;71903.72;;;16.41
74043;BMP280;62384;53.600;10.040;2023-05-10T12:57:22;71498.31;;;16.61
74043;BMP280;62384;53.600;10.040;2023-05-10T12:59:47;71772.09;;;16.56
74043;BMP280;62384;53.600;10.040;2023-05-10T13:02:13;71809.94;;;16.26
74043;BMP280;62384;53.600;10.040;2023-05-10T13:04:39;71817.44;;;16.86
74043;BMP280;62384;53.600;10.040;2023-05-10T13:07:06;72119.19;;;16.89
74043;BMP280;62384;53.600;10.040;2023-05-10T13:09:31;72165.84;;;17.03
74043;BMP280;62384;53.600;10.040;2023-05-10T13:11:57;72227.09;;;17.02
74043;BMP280;62384;53.600;10.040;2023-05-10T13:14:22;71506.84;;;17.02
74043;BMP280;62384;53.600;10.040;2023-05-10T13:16:47;71980.75;;;16.75
74043;BMP280;62384;53.600;10.040;2023-05-10T13:19:13;71675.72;;;16.81
74043;BMP280;62384;53.600;10.040;2023-05-10T13:21:39;71315.00;;;16.78
74043;BMP280;62384;53.600;10.040;2023-05-10T13:24:06;71625.56;;;16.57
74043;BMP280;62384;53.600;10.040;2023-05-10T13:26:31;71399.50;;;16.97
74043;BMP280;62384;53.600;10.040;2023-05-10T13:28:56;72187.75;;;17.24
74043;BMP280;62384;53.600;10.040;2023-05-10T13:31:22;72354.84;;;17.37
74043;BMP280;62384;53.600;10.040;2023-05-10T13:33:47;72425.78;;;17.50
74043;BMP280;62384;53.600;10.040;2023-05-10T13:36:12;72709.13;;;17.46
74043;BMP280;62384;53.600;10.040;2023-05-10T13:38:38;73167.69;;;17.38
74043;BMP280;62384;53.600;10.040;2023-05-10T13:41:04;72824.19;;;17.51
74043;BMP280;62384;53.600;10.040;2023-05-10T13:43:30;72971.63;;;17.68
74043;BMP280;62384;53.600;10.040;2023-05-10T13:45:56;72886.41;;;17.21
74043;BMP280;62384;53.600;10.040;2023-05-10T13:48:21;72706.34;;;17.06
74043;BMP280;62384;53.600;10.040;2023-05-10T13:50:47;73030.25;;;17.65
74043;BMP280;62384;53.600;10.040;2023-05-10T13:53:12;72833.34;;;17.57
74043;BMP280;62384;53.600;10.040;2023-05-10T13:58:59;73161.94;;;17.57
74043;BMP280;62384;53.600;10.040;2023-05-10T14:01:25;73303.94;;;17.57
74043;BMP280;62384;53.600;10.040;2023-05-10T14:03:51;73058.59;;;17.41
74043;BMP280;62384;53.600;10.040;2023-05-10T14:06:16;72923.13;;;17.53
74043;BMP280;62384;53.600;10.040;2023-05-10T14:08:42;73393.03;;;17.42
74043;BMP280;62384;53.600;10.040;2023-05-10T14:11:08;73009.16;;;17.53
74043;BMP280;62384;53.600;10.040;2023-05-10T14:13:34;72532.25;;;17.09
74043;BMP280;62384;53.600;10.040;2023-05-10T14:15:59;73175.56;;;17.20
74043;BMP280;62384;53.600;10.040;2023-05-10T14:18:26;73046.25;;;17.45
74043;BMP280;62384;53.600;10.040;2023-05-10T14:20:51;73142.38;;;17.37
74043;BMP280;62384;53.600;10.040;2023-05-10T14:23:19;73001.06;;;17.43